createdAt,value
2023-02-16T00:00:48.183Z,6.20
2023-02-16T00:03:17.230Z,6.20
2023-02-16T00:05:45.219Z,6.20
2023-02-16T00:08:18.854Z,6.20
2023-02-16T00:11:07.196Z,6.10
2023-02-16T00:13:49.275Z,6.10
2023-02-16T00:16:22.237Z,6.10
2023-02-16T00:18:53.446Z,6.10
2023-02-16T00:21:21.845Z,6.10
2023-02-16T00:23:49.837Z,6.10
2023-02-16T00:26:18.861Z,6.00
2023-02-16T00:28:46.853Z,6.00
2023-02-16T00:31:19.444Z,6.00
2023-02-16T00:33:49.346Z,6.00
2023-02-16T00:36:17.321Z,6.00
2023-02-16T00:38:45.300Z,6.00
2023-02-16T00:41:38.382Z,6.00
2023-02-16T00:44:08.850Z,6.00
2023-02-16T00:46:36.842Z,6.00
2023-02-16T00:49:06.206Z,5.90
2023-02-16T00:51:34.193Z,5.90
2023-02-16T00:54:02.176Z,5.90
2023-02-16T00:56:30.135Z,5.90
2023-02-16T00:58:58.683Z,5.90
2023-02-16T01:01:27.462Z,5.90
2023-02-16T01:03:55.461Z,5.90
2023-02-16T01:06:44.521Z,5.90
2023-02-16T01:09:31.566Z,5.80
2023-02-16T01:11:59.574Z,5.80
2023-02-16T01:14:28.944Z,5.80
2023-02-16T01:16:56.976Z,5.80
2023-02-16T01:19:24.951Z,5.80
2023-02-16T01:21:54.329Z,5.80
2023-02-16T01:24:22.322Z,5.70
2023-02-16T01:26:51.144Z,5.70
2023-02-16T01:29:20.216Z,5.70
2023-02-16T01:31:51.537Z,5.70
2023-02-16T01:34:21.174Z,5.70
2023-02-16T01:36:49.740Z,5.70
2023-02-16T01:39:23.206Z,5.70
2023-02-16T01:41:59.399Z,5.60
2023-02-16T01:44:29.548Z,5.60
2023-02-16T01:47:00.120Z,5.60
2023-02-16T01:49:28.082Z,5.60
2023-02-16T01:51:58.280Z,5.60
2023-02-16T01:54:33.517Z,5.50
2023-02-16T01:57:05.065Z,5.60
2023-02-16T01:59:40.532Z,5.50
2023-02-16T02:02:13.874Z,5.50
2023-02-16T02:05:00.905Z,5.50
2023-02-16T02:07:29.920Z,5.50
2023-02-16T02:10:02.348Z,5.50
2023-02-16T02:12:33.844Z,5.50
2023-02-16T02:15:01.801Z,5.40
2023-02-16T02:17:30.051Z,5.40
2023-02-16T02:20:08.464Z,5.40
2023-02-16T02:23:13.398Z,5.40
2023-02-16T02:25:52.745Z,5.40
2023-02-16T02:28:24.896Z,5.40
2023-02-16T02:30:55.605Z,5.30
2023-02-16T02:33:38.547Z,5.30
2023-02-16T02:36:15.545Z,5.30
2023-02-16T02:38:51.952Z,5.30
2023-02-16T02:41:21.916Z,5.30
2023-02-16T02:43:53.863Z,5.20
2023-02-16T02:46:27.676Z,5.20
2023-02-16T02:48:55.700Z,5.20
2023-02-16T02:51:33.907Z,5.10
2023-02-16T02:54:21.631Z,5.20
2023-02-16T02:57:10.104Z,5.10
2023-02-16T02:59:58.903Z,5.10
2023-02-16T03:02:27.208Z,5.10
2023-02-16T03:04:58.567Z,5.10
2023-02-16T03:07:44.749Z,5.10
2023-02-16T03:10:30.811Z,5.10
2023-02-16T03:12:59.374Z,5.00
2023-02-16T03:15:29.671Z,5.00
2023-02-16T03:18:16.365Z,5.00
2023-02-16T03:21:03.280Z,5.00
2023-02-16T03:23:49.213Z,5.00
2023-02-16T03:26:34.687Z,5.00
2023-02-16T03:29:19.253Z,5.00
2023-02-16T03:31:49.239Z,5.10
2023-02-16T03:34:17.752Z,4.90
2023-02-16T03:36:46.967Z,4.90
2023-02-16T03:39:14.958Z,5.00
2023-02-16T03:41:44.439Z,5.00
2023-02-16T03:44:12.438Z,5.00
2023-02-16T03:46:40.408Z,4.90
2023-02-16T03:49:09.782Z,4.90
2023-02-16T03:51:37.889Z,4.90
2023-02-16T03:54:05.894Z,4.90
2023-02-16T03:56:33.882Z,4.90
2023-02-16T03:59:01.859Z,4.90
2023-02-16T04:01:29.916Z,4.90
2023-02-16T04:03:57.988Z,4.80
2023-02-16T04:06:27.378Z,4.80
2023-02-16T04:08:55.591Z,4.80
2023-02-16T04:11:40.763Z,4.80
2023-02-16T04:14:08.718Z,4.80
2023-02-16T04:16:36.726Z,4.80
2023-02-16T04:19:06.189Z,4.80
2023-02-16T04:21:35.744Z,4.80
2023-02-16T04:24:05.709Z,4.70
2023-02-16T04:26:34.051Z,4.70
2023-02-16T04:29:02.027Z,4.70
2023-02-16T04:31:30.161Z,4.70
2023-02-16T04:33:58.197Z,4.70
2023-02-16T04:36:26.503Z,4.70
2023-02-16T04:38:55.816Z,4.70
2023-02-16T04:41:23.793Z,4.70
2023-02-16T04:43:53.179Z,4.70
2023-02-16T04:46:21.190Z,4.70
2023-02-16T04:48:49.204Z,4.70
2023-02-16T04:51:17.234Z,4.70
2023-02-16T04:53:45.201Z,4.70
2023-02-16T04:56:14.549Z,4.70
2023-02-16T04:58:42.718Z,4.60
2023-02-16T05:01:20.157Z,4.60
2023-02-16T05:03:48.311Z,4.70
2023-02-16T05:06:16.461Z,4.70
2023-02-16T05:08:44.896Z,4.70
2023-02-16T05:11:31.773Z,4.60
2023-02-16T05:14:17.250Z,4.70
2023-02-16T05:16:45.624Z,4.70
2023-02-16T05:19:13.912Z,4.70
2023-02-16T05:21:41.874Z,4.70
2023-02-16T05:24:10.895Z,4.70
2023-02-16T05:26:42.713Z,4.80
2023-02-16T05:29:10.682Z,4.80
2023-02-16T05:31:38.803Z,4.80
2023-02-16T05:34:06.892Z,4.80
2023-02-16T05:36:34.964Z,4.80
2023-02-16T05:39:03.081Z,4.90
2023-02-16T05:41:31.212Z,4.90
2023-02-16T05:44:01.298Z,4.90
2023-02-16T05:46:30.415Z,4.90
2023-02-16T05:48:58.413Z,4.90
2023-02-16T05:51:26.743Z,5.00
2023-02-16T05:53:54.974Z,5.00
2023-02-16T05:56:23.193Z,5.00
2023-02-16T05:58:53.953Z,5.00
2023-02-16T06:01:23.500Z,5.00
2023-02-16T06:03:51.559Z,5.00
2023-02-16T06:06:19.540Z,5.10
2023-02-16T06:08:47.499Z,5.10
2023-02-16T06:11:29.359Z,5.10
2023-02-16T06:13:58.184Z,5.10
2023-02-16T06:16:31.663Z,5.10
2023-02-16T06:18:59.809Z,5.20
2023-02-16T06:21:28.081Z,5.20
2023-02-16T06:23:57.230Z,5.20
2023-02-16T06:26:25.263Z,5.20
2023-02-16T06:28:53.500Z,5.20
2023-02-16T06:31:25.069Z,5.20
2023-02-16T06:33:54.772Z,5.20
2023-02-16T06:36:24.792Z,5.30
2023-02-16T06:38:52.908Z,5.30
2023-02-16T06:41:32.308Z,5.30
2023-02-16T06:44:00.873Z,5.30
2023-02-16T06:46:29.319Z,5.30
2023-02-16T06:48:58.657Z,5.30
2023-02-16T06:51:27.009Z,5.30
2023-02-16T06:53:55.056Z,5.30
2023-02-16T06:56:23.162Z,5.40
2023-02-16T06:58:51.336Z,5.40
2023-02-16T07:01:23.192Z,5.40
2023-02-16T07:03:51.690Z,5.40
2023-02-16T07:06:21.178Z,5.40
2023-02-16T07:08:49.142Z,5.40
2023-02-16T07:11:17.454Z,5.40
2023-02-16T07:13:45.413Z,5.40
2023-02-16T07:16:13.940Z,5.40
2023-02-16T07:18:42.285Z,5.40
2023-02-16T07:21:10.275Z,5.50
2023-02-16T07:23:40.024Z,5.50
2023-02-16T07:26:08.556Z,5.50
2023-02-16T07:28:36.672Z,5.50
2023-02-16T07:31:09.111Z,5.50
2023-02-16T07:33:37.138Z,5.50
2023-02-16T07:36:05.453Z,5.60
2023-02-16T07:38:33.584Z,5.60
2023-02-16T07:41:03.308Z,5.60
2023-02-16T07:43:31.856Z,5.60
2023-02-16T07:45:59.873Z,5.60
2023-02-16T07:48:27.868Z,5.70
2023-02-16T07:50:55.847Z,5.70
2023-02-16T07:53:23.873Z,5.70
2023-02-16T07:55:51.840Z,5.70
2023-02-16T07:58:28.279Z,5.70
2023-02-16T08:00:56.990Z,5.70
2023-02-16T08:03:25.244Z,5.70
2023-02-16T08:06:02.288Z,5.80
2023-02-16T08:08:33.246Z,5.80
2023-02-16T08:11:01.404Z,5.80
2023-02-16T08:13:37.307Z,5.80
2023-02-16T08:16:08.557Z,5.90
2023-02-16T08:18:38.770Z,5.80
2023-02-16T08:21:14.035Z,5.90
2023-02-16T08:23:43.236Z,5.90
2023-02-16T08:26:12.054Z,5.90
2023-02-16T08:28:47.226Z,5.90
2023-02-16T08:31:15.249Z,5.90
2023-02-16T08:33:44.040Z,6.00
2023-02-16T08:36:17.793Z,5.90
2023-02-16T08:38:45.883Z,6.00
2023-02-16T08:41:13.975Z,6.00
2023-02-16T08:43:41.934Z,6.00
2023-02-16T08:46:11.335Z,6.00
2023-02-16T08:48:40.400Z,6.10
2023-02-16T08:51:09.912Z,6.10
2023-02-16T08:53:37.917Z,6.10
2023-02-16T08:56:07.142Z,6.10
2023-02-16T08:58:37.130Z,6.10
2023-02-16T09:01:05.880Z,6.20
2023-02-16T09:03:35.739Z,6.20
2023-02-16T09:06:05.472Z,6.20
2023-02-16T09:08:34.323Z,6.30
2023-02-16T09:11:02.969Z,6.30
2023-02-16T09:13:31.204Z,6.40
2023-02-16T09:16:03.506Z,6.40
2023-02-16T09:18:32.994Z,6.40
2023-02-16T09:21:06.828Z,6.50
2023-02-16T09:23:35.736Z,6.50
2023-02-16T09:26:06.976Z,6.60
2023-02-16T09:28:35.206Z,6.60
2023-02-16T09:31:09.987Z,6.60
2023-02-16T09:33:41.472Z,6.70
2023-02-16T09:36:12.218Z,6.70
2023-02-16T09:38:40.672Z,6.80
2023-02-16T09:41:11.639Z,6.80
2023-02-16T09:43:45.469Z,6.90
2023-02-16T09:46:15.458Z,6.90
2023-02-16T09:48:45.855Z,6.90
2023-02-16T09:51:20.985Z,7.00
2023-02-16T09:53:55.705Z,7.00
2023-02-16T09:56:28.553Z,7.10
2023-02-16T09:58:58.521Z,7.10
2023-02-16T10:01:32.556Z,7.10
2023-02-16T10:04:06.709Z,7.10
2023-02-16T10:06:44.120Z,7.20
2023-02-16T10:09:13.567Z,7.20
2023-02-16T10:11:46.664Z,7.20
2023-02-16T10:14:18.272Z,7.20
2023-02-16T10:16:51.145Z,7.20
2023-02-16T10:19:21.644Z,7.20
2023-02-16T10:21:52.577Z,7.20
2023-02-16T10:24:25.963Z,7.20
2023-02-16T10:27:02.266Z,7.20
2023-02-16T10:29:30.580Z,7.30
2023-02-16T10:32:04.881Z,7.30
2023-02-16T10:34:37.940Z,7.30
2023-02-16T10:37:16.621Z,7.30
2023-02-16T10:39:47.431Z,7.30
2023-02-16T10:42:19.306Z,7.30
2023-02-16T10:44:49.865Z,7.30
2023-02-16T10:47:24.758Z,7.30
2023-02-16T10:49:52.951Z,7.30
2023-02-16T10:52:23.104Z,7.40
2023-02-16T10:54:51.135Z,7.40
2023-02-16T10:57:24.936Z,7.40
2023-02-16T10:59:54.171Z,7.40
2023-02-16T11:02:25.293Z,7.40
2023-02-16T11:04:54.343Z,7.40
2023-02-16T11:07:24.938Z,7.40
2023-02-16T11:09:54.789Z,7.40
2023-02-16T11:12:30.903Z,7.40
2023-02-16T11:15:00.903Z,7.40
2023-02-16T11:17:29.089Z,7.40
2023-02-16T11:20:01.432Z,7.40
2023-02-16T11:22:33.464Z,7.40
2023-02-16T11:25:21.281Z,7.40
2023-02-16T11:27:53.975Z,7.40
2023-02-16T11:30:33.458Z,7.40
2023-02-16T11:33:07.103Z,7.40
2023-02-16T11:35:42.438Z,7.40
2023-02-16T11:38:25.870Z,7.40
2023-02-16T11:40:55.729Z,7.40
2023-02-16T11:43:26.953Z,7.40
2023-02-16T11:45:59.797Z,7.40
2023-02-16T11:48:29.528Z,7.40
2023-02-16T11:50:58.438Z,7.40
2023-02-16T11:53:27.661Z,7.40
2023-02-16T11:56:11.093Z,7.40
2023-02-16T11:58:39.449Z,7.40
2023-02-16T12:01:14.484Z,7.40
2023-02-16T12:03:59.762Z,7.40
2023-02-16T12:06:33.658Z,7.40
2023-02-16T12:09:11.061Z,7.40
2023-02-16T12:11:51.525Z,7.50
2023-02-16T12:14:24.978Z,7.50
2023-02-16T12:16:55.799Z,7.50
2023-02-16T12:19:30.444Z,7.50
2023-02-16T12:22:05.830Z,7.50
2023-02-16T12:24:39.940Z,7.60
2023-02-16T12:27:14.889Z,7.60
2023-02-16T12:29:47.706Z,7.60
2023-02-16T12:32:20.228Z,7.60
2023-02-16T12:34:54.718Z,7.60
2023-02-16T12:37:27.100Z,7.60
2023-02-16T12:39:59.336Z,7.60
2023-02-16T12:42:38.309Z,7.60
2023-02-16T12:45:11.208Z,7.60
2023-02-16T12:47:42.931Z,7.60
2023-02-16T12:50:16.950Z,7.60
2023-02-16T12:52:48.912Z,7.70
2023-02-16T12:55:20.854Z,7.70
2023-02-16T12:57:53.702Z,7.70
2023-02-16T13:00:24.025Z,7.70
2023-02-16T13:02:54.865Z,7.60
2023-02-16T13:05:24.934Z,7.70
2023-02-16T13:07:55.725Z,7.70
2023-02-16T13:10:25.607Z,7.70
2023-02-16T13:12:58.720Z,7.70
2023-02-16T13:15:32.171Z,7.60
2023-02-16T13:18:02.959Z,7.60
2023-02-16T13:20:31.225Z,7.70
2023-02-16T13:23:11.485Z,7.60
2023-02-16T13:25:57.907Z,7.60
2023-02-16T13:28:37.343Z,7.60
2023-02-16T13:31:12.465Z,7.50
2023-02-16T13:33:50.959Z,7.50
2023-02-16T13:36:26.275Z,7.50
2023-02-16T13:39:07.916Z,7.50
2023-02-16T13:41:45.985Z,7.50
2023-02-16T13:44:16.575Z,7.50
2023-02-16T13:46:48.624Z,7.40
2023-02-16T13:49:31.063Z,7.40
2023-02-16T13:51:59.514Z,7.40
2023-02-16T13:54:30.327Z,7.40
2023-02-16T13:56:58.511Z,7.40
2023-02-16T13:59:56.593Z,7.40
2023-02-16T14:02:43.414Z,7.40
2023-02-16T14:05:13.304Z,7.40
2023-02-16T14:07:45.359Z,7.40
2023-02-16T14:10:14.595Z,7.40
2023-02-16T14:12:42.650Z,7.40
2023-02-16T14:15:19.200Z,7.40
2023-02-16T14:17:47.260Z,7.40
2023-02-16T14:20:30.711Z,7.50
2023-02-16T14:23:00.039Z,7.50
2023-02-16T14:25:39.101Z,7.50
2023-02-16T14:28:27.482Z,7.50
2023-02-16T14:30:56.605Z,7.50
2023-02-16T14:33:31.015Z,7.50
2023-02-16T14:36:08.964Z,7.50
2023-02-16T14:38:37.952Z,7.50
2023-02-16T14:41:08.712Z,7.50
2023-02-16T14:43:41.604Z,7.50
2023-02-16T14:46:17.821Z,7.50
2023-02-16T14:49:06.528Z,7.50
2023-02-16T14:51:50.869Z,7.50
2023-02-16T14:54:37.097Z,7.50
2023-02-16T14:57:08.329Z,7.60
2023-02-16T14:59:40.269Z,7.60
2023-02-16T15:02:23.068Z,7.60
2023-02-16T15:04:51.037Z,7.70
2023-02-16T15:07:19.320Z,7.60
2023-02-16T15:09:57.191Z,7.60
2023-02-16T15:12:28.143Z,7.70
2023-02-16T15:14:58.256Z,7.70
2023-02-16T15:17:29.110Z,7.70
2023-02-16T15:19:58.765Z,7.70
2023-02-16T15:22:27.518Z,7.70
2023-02-16T15:24:58.186Z,7.70
2023-02-16T15:27:26.230Z,7.70
2023-02-16T15:30:04.817Z,7.70
2023-02-16T15:32:33.340Z,7.70
2023-02-16T15:35:09.775Z,7.70
2023-02-16T15:37:40.572Z,7.70
2023-02-16T15:40:25.418Z,7.70
2023-02-16T15:42:55.054Z,7.70
2023-02-16T15:45:30.688Z,7.70
2023-02-16T15:48:16.456Z,7.70
2023-02-16T15:50:44.689Z,7.70
2023-02-16T15:53:13.336Z,7.70
2023-02-16T15:55:46.769Z,7.70
2023-02-16T15:58:15.773Z,7.70
2023-02-16T16:00:45.144Z,7.70
2023-02-16T16:03:15.995Z,7.70
2023-02-16T16:05:45.260Z,7.70
2023-02-16T16:08:17.345Z,7.70
2023-02-16T16:10:48.472Z,7.70
2023-02-16T16:13:20.089Z,7.70
2023-02-16T16:15:51.557Z,7.70
2023-02-16T16:18:39.052Z,7.70
2023-02-16T16:21:14.438Z,7.70
2023-02-16T16:23:42.599Z,7.70
2023-02-16T16:26:21.667Z,7.70
2023-02-16T16:28:49.733Z,7.70
2023-02-16T16:31:18.904Z,7.70
2023-02-16T16:33:53.468Z,7.70
2023-02-16T16:36:21.988Z,7.70
2023-02-16T16:38:49.941Z,7.70
2023-02-16T16:41:27.698Z,7.70
2023-02-16T16:43:56.769Z,7.70
2023-02-16T16:46:25.785Z,7.70
2023-02-16T16:48:58.090Z,7.70
2023-02-16T16:51:37.548Z,7.70
2023-02-16T16:54:06.222Z,7.70
2023-02-16T16:56:38.046Z,7.70
2023-02-16T16:59:06.277Z,7.70
2023-02-16T17:01:36.056Z,7.70
2023-02-16T17:04:06.834Z,7.70
2023-02-16T17:06:34.830Z,7.70
2023-02-16T17:09:03.189Z,7.70
2023-02-16T17:11:35.426Z,7.70
2023-02-16T17:14:08.246Z,7.70
2023-02-16T17:16:38.611Z,7.70
2023-02-16T17:19:06.586Z,7.70
2023-02-16T17:21:34.602Z,7.70
2023-02-16T17:24:02.728Z,7.70
2023-02-16T17:26:30.853Z,7.70
2023-02-16T17:28:59.240Z,7.70
2023-02-16T17:31:28.737Z,7.70
2023-02-16T17:33:56.822Z,7.70
2023-02-16T17:36:26.187Z,7.70
2023-02-16T17:38:54.187Z,7.70
2023-02-16T17:41:23.317Z,7.70
2023-02-16T17:43:51.548Z,7.70
2023-02-16T17:46:20.528Z,7.70
2023-02-16T17:48:53.411Z,7.60
2023-02-16T17:51:22.537Z,7.90
2023-02-16T17:53:50.617Z,7.70
2023-02-16T17:56:21.219Z,7.60
2023-02-16T17:58:49.337Z,7.60
2023-02-16T18:01:20.745Z,7.60
2023-02-16T18:03:50.370Z,7.60
2023-02-16T18:06:20.049Z,7.60
2023-02-16T18:08:48.130Z,7.60
2023-02-16T18:11:16.081Z,7.60
2023-02-16T18:13:44.216Z,7.60
2023-02-16T18:16:14.675Z,7.60
2023-02-16T18:18:42.691Z,7.60
2023-02-16T18:21:12.379Z,7.60
2023-02-16T18:23:43.182Z,7.60
2023-02-16T18:26:16.566Z,7.50
2023-02-16T18:28:45.035Z,7.60
2023-02-16T18:31:14.495Z,7.50
2023-02-16T18:33:42.577Z,7.50
2023-02-16T18:36:11.989Z,7.60
2023-02-16T18:38:40.163Z,7.50
2023-02-16T18:41:08.261Z,7.60
2023-02-16T18:43:37.229Z,5.60
2023-02-16T18:46:08.477Z,7.60
2023-02-16T18:48:36.606Z,7.60
2023-02-16T18:51:05.613Z,7.60
2023-02-16T18:53:37.574Z,7.60
2023-02-16T18:56:06.026Z,7.60
2023-02-16T18:58:34.373Z,7.60
2023-02-16T19:01:11.662Z,7.60
2023-02-16T19:03:40.601Z,7.60
2023-02-16T19:06:09.024Z,7.60
2023-02-16T19:08:38.447Z,7.60
2023-02-16T19:11:08.328Z,7.70
2023-02-16T19:13:36.272Z,7.70
2023-02-16T19:16:04.630Z,7.70
2023-02-16T19:18:33.067Z,7.70
2023-02-16T19:21:05.600Z,7.70
2023-02-16T19:23:33.609Z,7.70
2023-02-16T19:26:07.459Z,7.70
2023-02-16T19:28:36.049Z,7.60
2023-02-16T19:31:05.204Z,7.70
2023-02-16T19:33:33.490Z,7.70
2023-02-16T19:36:02.931Z,7.70
2023-02-16T19:38:31.071Z,7.70
2023-02-16T19:40:59.573Z,7.70
2023-02-16T19:43:28.941Z,7.80
2023-02-16T19:45:57.123Z,7.70
2023-02-16T19:48:25.098Z,7.80
2023-02-16T19:50:57.057Z,7.80
2023-02-16T19:53:25.201Z,7.80
2023-02-16T19:55:54.710Z,7.80
2023-02-16T19:58:22.822Z,7.90
2023-02-16T20:00:52.183Z,7.80
2023-02-16T20:03:20.804Z,7.90
2023-02-16T20:05:48.770Z,7.90
2023-02-16T20:08:16.781Z,7.90
2023-02-16T20:10:45.345Z,7.90
2023-02-16T20:13:13.313Z,7.90
2023-02-16T20:15:41.256Z,7.90
2023-02-16T20:18:10.618Z,7.90
2023-02-16T20:20:40.489Z,7.90
2023-02-16T20:23:09.602Z,7.90
2023-02-16T20:25:41.821Z,8.00
2023-02-16T20:28:10.475Z,8.00
2023-02-16T20:30:38.465Z,7.90
2023-02-16T20:33:06.749Z,8.00
2023-02-16T20:35:36.233Z,8.00
2023-02-16T20:38:04.322Z,8.00
2023-02-16T20:40:32.320Z,8.00
2023-02-16T20:43:00.390Z,8.00
2023-02-16T20:45:28.367Z,8.00
2023-02-16T20:47:56.348Z,8.00
2023-02-16T20:50:24.369Z,8.00
2023-02-16T20:52:54.597Z,8.00
2023-02-16T20:55:24.090Z,8.00
2023-02-16T20:57:52.063Z,8.00
2023-02-16T21:00:24.116Z,8.00
2023-02-16T21:02:52.325Z,8.10
2023-02-16T21:05:20.671Z,8.00
2023-02-16T21:07:49.800Z,8.10
2023-02-16T21:10:19.441Z,8.10
2023-02-16T21:12:47.551Z,8.10
2023-02-16T21:15:18.562Z,8.10
2023-02-16T21:17:46.704Z,8.10
2023-02-16T21:20:14.725Z,8.10
2023-02-16T21:22:44.525Z,8.10
2023-02-16T21:25:15.454Z,8.20
2023-02-16T21:27:44.760Z,8.20
2023-02-16T21:30:13.373Z,8.20
2023-02-16T21:32:41.390Z,8.20
2023-02-16T21:35:09.624Z,8.20
2023-02-16T21:37:38.600Z,8.20
2023-02-16T21:40:24.770Z,8.20
2023-02-16T21:42:54.081Z,8.20
2023-02-16T21:45:22.077Z,8.30
2023-02-16T21:48:07.654Z,8.30
2023-02-16T21:50:36.488Z,8.30
2023-02-16T21:53:04.761Z,8.30
2023-02-16T21:55:50.237Z,8.40
2023-02-16T21:58:19.533Z,8.40
2023-02-16T22:00:50.382Z,8.40
2023-02-16T22:03:18.377Z,8.40
2023-02-16T22:05:46.550Z,8.40
2023-02-16T22:08:14.771Z,8.40
2023-02-16T22:10:42.976Z,8.80
2023-02-16T22:13:11.127Z,8.50
2023-02-16T22:15:43.287Z,8.50
2023-02-16T22:18:11.234Z,8.50
2023-02-16T22:20:39.186Z,8.50
2023-02-16T22:23:07.207Z,8.50
2023-02-16T22:25:35.140Z,8.60
2023-02-16T22:28:03.082Z,8.60
2023-02-16T22:30:31.181Z,8.60
2023-02-16T22:33:03.476Z,8.60
2023-02-16T22:35:31.602Z,8.60
2023-02-16T22:37:59.533Z,8.60
2023-02-16T22:40:27.517Z,8.60
2023-02-16T22:42:55.438Z,8.70
2023-02-16T22:45:23.416Z,8.70
2023-02-16T22:47:51.386Z,8.70
2023-02-16T22:50:20.897Z,8.70
2023-02-16T22:52:48.999Z,8.80
2023-02-16T22:55:17.043Z,8.80
2023-02-16T22:57:45.039Z,8.80
2023-02-16T23:00:15.155Z,8.80
2023-02-16T23:02:43.089Z,8.80
2023-02-16T23:05:12.952Z,8.90
2023-02-16T23:07:42.312Z,8.90
2023-02-16T23:10:10.624Z,8.90
2023-02-16T23:12:38.576Z,8.90
2023-02-16T23:15:06.849Z,8.90
2023-02-16T23:17:34.795Z,8.90
2023-02-16T23:20:02.827Z,9.00
2023-02-16T23:22:31.248Z,9.00
2023-02-16T23:25:18.066Z,9.00
2023-02-16T23:27:46.084Z,9.00
2023-02-16T23:30:14.402Z,9.00
2023-02-16T23:32:42.370Z,9.00
2023-02-16T23:35:10.318Z,9.00
2023-02-16T23:37:38.495Z,9.00
2023-02-16T23:40:08.694Z,9.00
2023-02-16T23:42:36.667Z,9.10
2023-02-16T23:45:04.930Z,9.10
2023-02-16T23:47:32.991Z,9.10
2023-02-16T23:50:01.102Z,9.10
2023-02-16T23:52:29.080Z,9.10
2023-02-16T23:54:57.028Z,9.10
2023-02-16T23:57:26.365Z,9.10
2023-02-16T23:59:54.315Z,9.10
